createdAt,value
2019-05-25T00:01:56.594Z,99.90
2019-05-25T00:04:24.461Z,99.90
2019-05-25T00:06:52.268Z,99.90
2019-05-25T00:09:21.011Z,99.90
2019-05-25T00:11:48.899Z,99.90
2019-05-25T00:14:16.735Z,99.90
2019-05-25T00:16:44.631Z,99.90
2019-05-25T00:19:12.341Z,99.90
2019-05-25T00:21:40.202Z,99.90
2019-05-25T00:24:12.081Z,99.90
2019-05-25T00:26:38.019Z,99.90
2019-05-25T00:29:05.944Z,99.90
2019-05-25T00:31:33.739Z,99.90
2019-05-25T00:34:01.578Z,99.90
2019-05-25T00:36:29.802Z,99.90
2019-05-25T00:38:57.591Z,99.90
2019-05-25T00:41:25.440Z,99.90
2019-05-25T00:43:53.257Z,99.90
2019-05-25T00:46:21.475Z,99.90
2019-05-25T00:48:49.537Z,99.90
2019-05-25T00:51:17.384Z,99.90
2019-05-25T00:53:45.201Z,99.90
2019-05-25T00:56:12.952Z,99.90
2019-05-25T00:58:40.811Z,99.90
2019-05-25T01:01:08.870Z,99.90
2019-05-25T01:03:36.794Z,99.90
2019-05-25T01:06:05.129Z,99.90
2019-05-25T01:08:33.240Z,99.90
2019-05-25T01:11:01.029Z,99.90
2019-05-25T01:13:29.984Z,99.90
2019-05-25T01:15:58.610Z,99.90
2019-05-25T01:18:26.739Z,99.90
2019-05-25T01:20:55.140Z,99.90
2019-05-25T01:23:23.173Z,99.90
2019-05-25T01:25:51.055Z,99.90
2019-05-25T01:28:18.701Z,99.90
2019-05-25T01:30:46.479Z,99.90
2019-05-25T01:33:15.407Z,99.90
2019-05-25T01:35:43.543Z,99.90
2019-05-25T01:38:11.416Z,99.90
2019-05-25T01:40:39.233Z,99.90
2019-05-25T01:43:06.980Z,99.90
2019-05-25T01:45:34.955Z,99.90
2019-05-25T01:48:02.708Z,99.90
2019-05-25T01:50:30.722Z,99.90
2019-05-25T01:52:58.674Z,99.90
2019-05-25T01:55:26.452Z,99.90
2019-05-25T01:57:54.480Z,99.90
2019-05-25T02:00:22.423Z,99.90
2019-05-25T02:02:50.407Z,99.90
2019-05-25T02:05:18.249Z,99.90
2019-05-25T02:07:46.363Z,99.90
2019-05-25T02:10:14.442Z,99.90
2019-05-25T02:12:42.191Z,99.90
2019-05-25T02:15:10.285Z,99.90
2019-05-25T02:17:38.105Z,99.90
2019-05-25T02:20:06.276Z,99.90
2019-05-25T02:22:34.230Z,99.90
2019-05-25T02:25:16.435Z,99.90
2019-05-25T02:27:31.534Z,99.90
2019-05-25T02:29:59.244Z,99.90
2019-05-25T02:32:27.023Z,99.90
2019-05-25T02:34:54.723Z,99.90
2019-05-25T02:37:22.517Z,99.90
2019-05-25T02:39:50.929Z,99.90
2019-05-25T02:42:18.843Z,99.90
2019-05-25T02:44:46.819Z,99.90
2019-05-25T02:47:14.659Z,99.90
2019-05-25T02:49:42.294Z,99.90
2019-05-25T02:52:10.604Z,99.90
2019-05-25T02:54:38.543Z,99.90
2019-05-25T02:57:06.776Z,99.90
2019-05-25T02:59:34.558Z,99.90
2019-05-25T03:02:02.299Z,99.90
2019-05-25T03:04:30.108Z,99.90
2019-05-25T03:06:57.766Z,99.90
2019-05-25T03:09:27.380Z,99.90
2019-05-25T03:11:58.414Z,99.90
2019-05-25T03:14:26.353Z,99.90
2019-05-25T03:16:54.983Z,99.90
2019-05-25T03:19:22.764Z,99.90
2019-05-25T03:21:50.561Z,99.90
2019-05-25T03:24:18.874Z,99.90
2019-05-25T03:26:46.582Z,99.90
2019-05-25T03:29:14.250Z,99.90
2019-05-25T03:31:41.964Z,99.90
2019-05-25T03:34:10.107Z,99.90
2019-05-25T03:36:38.931Z,99.90
2019-05-25T03:39:07.225Z,99.90
2019-05-25T03:41:35.276Z,99.90
2019-05-25T03:44:03.633Z,99.90
2019-05-25T03:46:32.664Z,99.90
2019-05-25T03:49:00.766Z,99.90
2019-05-25T03:51:28.403Z,99.90
2019-05-25T03:53:56.363Z,99.90
2019-05-25T03:56:24.024Z,99.90
2019-05-25T03:58:52.033Z,99.90
2019-05-25T04:01:20.095Z,99.90
2019-05-25T04:03:48.027Z,99.90
2019-05-25T04:06:15.782Z,99.90
2019-05-25T04:08:44.815Z,99.90
2019-05-25T04:11:12.552Z,99.90
2019-05-25T04:13:40.471Z,99.90
2019-05-25T04:16:08.426Z,99.90
2019-05-25T04:18:36.326Z,99.90
2019-05-25T04:21:03.963Z,99.90
2019-05-25T04:23:31.553Z,99.90
2019-05-25T04:25:59.276Z,99.90
2019-05-25T04:28:27.948Z,99.90
2019-05-25T04:30:55.741Z,99.90
2019-05-25T04:33:23.380Z,99.90
2019-05-25T04:35:51.513Z,99.90
2019-05-25T04:38:19.447Z,99.90
2019-05-25T04:40:47.416Z,99.90
2019-05-25T04:43:15.735Z,99.90
2019-05-25T04:45:43.462Z,99.90
2019-05-25T04:48:11.164Z,99.90
2019-05-25T04:50:39.380Z,99.90
2019-05-25T04:53:07.061Z,99.90
2019-05-25T04:55:34.897Z,99.90
2019-05-25T04:58:03.147Z,99.90
2019-05-25T05:00:30.999Z,99.90
2019-05-25T05:02:58.846Z,99.90
2019-05-25T05:05:26.475Z,99.90
2019-05-25T05:07:54.601Z,99.90
2019-05-25T05:10:22.929Z,99.90
2019-05-25T05:12:51.106Z,99.90
2019-05-25T05:15:19.173Z,99.90
2019-05-25T05:17:46.870Z,99.90
2019-05-25T05:20:15.593Z,99.90
2019-05-25T05:22:43.205Z,99.90
2019-05-25T05:25:12.324Z,99.90
2019-05-25T05:27:40.283Z,99.90
2019-05-25T05:30:08.213Z,99.90
2019-05-25T05:32:36.163Z,99.90
2019-05-25T05:35:05.142Z,99.90
2019-05-25T05:37:33.534Z,99.90
2019-05-25T05:40:01.429Z,99.90
2019-05-25T05:42:32.041Z,99.90
2019-05-25T05:45:02.165Z,99.90
2019-05-25T05:47:34.014Z,99.90
2019-05-25T05:50:02.451Z,99.90
2019-05-25T05:52:36.215Z,99.90
2019-05-25T05:55:04.536Z,99.90
2019-05-25T05:57:32.432Z,99.90
2019-05-25T06:00:00.390Z,99.90
2019-05-25T06:02:28.090Z,99.90
2019-05-25T06:04:55.874Z,99.90
2019-05-25T06:07:27.240Z,99.90
2019-05-25T06:09:53.911Z,99.90
2019-05-25T06:12:21.537Z,99.90
2019-05-25T06:14:49.109Z,99.90
2019-05-25T06:17:17.187Z,99.90
2019-05-25T06:19:45.175Z,99.90
2019-05-25T06:22:12.974Z,99.90
2019-05-25T06:24:41.716Z,99.90
2019-05-25T06:27:09.545Z,99.90
2019-05-25T06:29:37.166Z,99.90
2019-05-25T06:32:05.354Z,99.90
2019-05-25T06:34:33.877Z,99.90
2019-05-25T06:37:01.733Z,99.90
2019-05-25T06:39:29.604Z,99.90
2019-05-25T06:41:57.585Z,99.90
2019-05-25T06:44:25.371Z,99.90
2019-05-25T06:46:53.007Z,99.90
2019-05-25T06:49:20.615Z,99.90
2019-05-25T06:51:48.127Z,99.90
2019-05-25T06:54:16.039Z,99.90
2019-05-25T06:56:45.035Z,99.90
2019-05-25T06:59:12.824Z,99.90
2019-05-25T07:01:40.507Z,99.90
2019-05-25T07:04:09.141Z,99.90
2019-05-25T07:06:37.184Z,99.90
2019-05-25T07:09:06.668Z,99.90
2019-05-25T07:11:34.387Z,99.90
2019-05-25T07:14:02.287Z,99.90
2019-05-25T07:16:30.037Z,99.90
2019-05-25T07:18:57.948Z,99.90
2019-05-25T07:21:25.614Z,99.90
2019-05-25T07:23:53.405Z,99.90
2019-05-25T07:26:21.344Z,99.90
2019-05-25T07:28:49.007Z,99.90
2019-05-25T07:31:16.797Z,99.90
2019-05-25T07:33:45.874Z,99.90
2019-05-25T07:36:13.738Z,99.90
2019-05-25T07:38:41.947Z,99.90
2019-05-25T07:41:10.142Z,99.40
2019-05-25T07:43:38.462Z,97.20
2019-05-25T07:46:06.846Z,96.50
2019-05-25T07:48:34.675Z,91.70
2019-05-25T07:51:02.679Z,91.60
2019-05-25T07:53:30.651Z,88.30
2019-05-25T07:55:58.348Z,90.20
2019-05-25T07:58:26.399Z,87.60
2019-05-25T08:00:54.130Z,92.30
2019-05-25T08:03:22.020Z,92.70
2019-05-25T08:05:49.638Z,96.70
2019-05-25T08:08:18.758Z,99.60
2019-05-25T08:10:46.602Z,99.90
2019-05-25T08:13:14.773Z,99.90
2019-05-25T08:15:42.979Z,99.90
2019-05-25T08:18:11.280Z,99.10
2019-05-25T08:20:39.535Z,98.00
2019-05-25T08:23:07.167Z,97.50
2019-05-25T08:25:35.146Z,96.10
2019-05-25T08:28:02.795Z,93.90
2019-05-25T08:30:30.969Z,94.00
2019-05-25T08:32:58.842Z,92.00
2019-05-25T08:35:26.631Z,92.00
2019-05-25T08:37:54.978Z,92.70
2019-05-25T08:40:22.739Z,87.80
2019-05-25T08:42:50.557Z,87.90
2019-05-25T08:45:18.739Z,83.60
2019-05-25T08:47:47.588Z,85.20
2019-05-25T08:50:15.557Z,80.70
2019-05-25T08:52:43.368Z,76.00
2019-05-25T08:55:11.648Z,81.10
2019-05-25T08:57:39.682Z,83.00
2019-05-25T09:00:08.104Z,84.80
2019-05-25T09:02:36.497Z,88.10
2019-05-25T09:05:05.262Z,79.70
2019-05-25T09:07:33.602Z,76.10
2019-05-25T09:10:01.342Z,74.10
2019-05-25T09:12:29.263Z,68.70
2019-05-25T09:14:57.705Z,67.20
2019-05-25T09:17:25.439Z,65.90
2019-05-25T09:19:53.507Z,65.10
2019-05-25T09:22:21.306Z,66.70
2019-05-25T09:24:49.441Z,63.70
2019-05-25T09:27:17.371Z,60.10
2019-05-25T09:29:45.223Z,57.90
2019-05-25T09:32:13.513Z,57.50
2019-05-25T09:34:41.499Z,57.40
2019-05-25T09:37:09.106Z,59.00
2019-05-25T09:39:36.760Z,59.40
2019-05-25T09:42:05.007Z,56.80
2019-05-25T09:44:32.664Z,53.50
2019-05-25T09:47:00.452Z,49.70
2019-05-25T09:49:28.164Z,47.90
2019-05-25T09:51:56.189Z,49.10
2019-05-25T09:54:24.127Z,48.60
2019-05-25T09:56:51.535Z,46.70
2019-05-25T09:59:20.677Z,45.90
2019-05-25T10:01:48.720Z,45.30
2019-05-25T10:04:16.829Z,45.60
2019-05-25T10:06:45.190Z,46.30
2019-05-25T10:09:13.324Z,47.80
2019-05-25T10:11:42.054Z,47.10
2019-05-25T10:14:09.698Z,47.20
2019-05-25T10:16:37.537Z,47.70
2019-05-25T10:19:05.560Z,47.20
2019-05-25T10:21:33.865Z,47.60
2019-05-25T10:24:01.890Z,47.40
2019-05-25T10:26:29.645Z,47.20
2019-05-25T10:28:57.543Z,46.00
2019-05-25T10:31:25.228Z,47.80
2019-05-25T10:33:52.967Z,48.20
2019-05-25T10:36:20.665Z,46.90
2019-05-25T10:38:50.272Z,46.20
2019-05-25T10:41:18.325Z,47.70
2019-05-25T10:43:45.975Z,48.40
2019-05-25T10:46:13.972Z,48.20
2019-05-25T10:48:42.739Z,50.90
2019-05-25T10:51:10.566Z,52.70
2019-05-25T10:53:38.270Z,53.90
2019-05-25T10:56:06.269Z,56.00
2019-05-25T10:58:34.232Z,58.10
2019-05-25T11:01:01.990Z,60.80
2019-05-25T11:03:29.795Z,64.60
2019-05-25T11:05:57.438Z,72.70
2019-05-25T11:08:25.927Z,79.80
2019-05-25T11:10:54.018Z,84.70
2019-05-25T11:13:22.004Z,90.00
2019-05-25T11:15:49.885Z,92.30
2019-05-25T11:18:18.075Z,93.60
2019-05-25T11:20:45.814Z,99.00
2019-05-25T11:23:13.483Z,99.90
2019-05-25T11:25:41.863Z,99.90
2019-05-25T11:28:09.595Z,99.90
2019-05-25T11:30:37.232Z,99.90
2019-05-25T11:33:04.995Z,99.90
2019-05-25T11:35:33.052Z,99.90
2019-05-25T11:38:00.742Z,99.90
2019-05-25T11:40:28.437Z,99.90
2019-05-25T11:42:56.512Z,99.90
2019-05-25T11:45:24.719Z,99.90
2019-05-25T11:47:52.542Z,99.90
2019-05-25T11:50:20.632Z,99.90
2019-05-25T11:52:48.734Z,99.90
2019-05-25T11:55:16.893Z,99.90
2019-05-25T11:57:45.400Z,99.90
2019-05-25T12:00:24.279Z,99.90
2019-05-25T12:02:44.262Z,99.90
2019-05-25T12:05:12.434Z,99.90
2019-05-25T12:07:43.801Z,99.90
2019-05-25T12:10:11.830Z,99.90
2019-05-25T12:12:39.666Z,99.90
2019-05-25T12:15:08.826Z,94.60
2019-05-25T12:17:36.611Z,81.50
2019-05-25T12:20:05.188Z,66.40
2019-05-25T12:22:33.061Z,63.50
2019-05-25T12:25:01.062Z,64.90
2019-05-25T12:27:28.760Z,70.10
2019-05-25T12:29:56.434Z,80.40
2019-05-25T12:32:24.508Z,81.90
2019-05-25T12:34:52.172Z,83.70
2019-05-25T12:37:20.134Z,89.60
2019-05-25T12:39:48.072Z,92.10
2019-05-25T12:42:15.766Z,96.10
2019-05-25T12:44:43.492Z,99.00
2019-05-25T12:47:11.247Z,99.90
2019-05-25T12:49:50.108Z,99.90
2019-05-25T12:52:08.780Z,99.90
2019-05-25T12:54:37.118Z,99.90
2019-05-25T12:57:04.738Z,99.90
2019-05-25T12:59:32.295Z,99.90
2019-05-25T13:02:00.639Z,99.90
2019-05-25T13:04:28.736Z,99.90
2019-05-25T13:06:56.396Z,99.90
2019-05-25T13:09:24.791Z,99.90
2019-05-25T13:11:52.533Z,99.90
2019-05-25T13:14:20.611Z,99.90
2019-05-25T13:16:48.491Z,99.90
2019-05-25T13:19:16.647Z,99.90
2019-05-25T13:21:44.534Z,99.90
2019-05-25T13:24:12.196Z,99.90
2019-05-25T13:26:39.917Z,99.90
2019-05-25T13:29:07.930Z,99.90
2019-05-25T13:31:36.932Z,99.90
2019-05-25T13:34:04.595Z,99.90
2019-05-25T13:36:32.259Z,99.90
2019-05-25T13:38:59.961Z,99.90
2019-05-25T13:41:27.871Z,99.90
2019-05-25T13:43:55.551Z,99.90
2019-05-25T13:46:23.709Z,99.90
2019-05-25T13:48:51.810Z,99.90
2019-05-25T13:51:19.900Z,99.90
2019-05-25T13:53:49.296Z,99.90
2019-05-25T13:56:17.285Z,99.90
2019-05-25T13:58:45.539Z,99.90
2019-05-25T14:01:27.498Z,99.90
2019-05-25T14:03:43.164Z,99.90
2019-05-25T14:06:11.466Z,99.90
2019-05-25T14:08:39.411Z,99.90
2019-05-25T14:11:07.299Z,99.90
2019-05-25T14:13:35.741Z,99.90
2019-05-25T14:16:06.966Z,99.90
2019-05-25T14:18:33.338Z,99.90
2019-05-25T14:21:01.048Z,99.90
2019-05-25T14:23:29.015Z,99.90
2019-05-25T14:25:57.246Z,94.90
2019-05-25T14:28:25.305Z,91.90
2019-05-25T14:30:52.980Z,91.30
2019-05-25T14:33:21.041Z,88.20
2019-05-25T14:35:49.263Z,90.40
2019-05-25T14:38:28.222Z,84.30
2019-05-25T14:40:56.356Z,70.40
2019-05-25T14:43:28.116Z,59.30
2019-05-25T14:45:56.459Z,54.80
2019-05-25T14:48:24.208Z,49.80
2019-05-25T14:50:52.172Z,49.60
2019-05-25T14:53:20.150Z,49.60
2019-05-25T14:55:47.732Z,52.20
2019-05-25T14:58:18.653Z,52.60
2019-05-25T15:00:46.536Z,53.00
2019-05-25T15:03:14.307Z,54.10
2019-05-25T15:05:42.619Z,53.60
2019-05-25T15:08:10.890Z,49.80
2019-05-25T15:10:38.924Z,48.70
2019-05-25T15:13:06.897Z,47.80
2019-05-25T15:15:35.395Z,49.90
2019-05-25T15:18:04.579Z,52.00
2019-05-25T15:20:32.549Z,56.70
2019-05-25T15:23:00.269Z,59.80
2019-05-25T15:25:28.072Z,59.00
2019-05-25T15:27:56.682Z,59.60
2019-05-25T15:30:25.164Z,59.50
2019-05-25T15:32:54.147Z,62.90
2019-05-25T15:35:21.912Z,70.20
2019-05-25T15:37:49.631Z,74.30
2019-05-25T15:40:20.774Z,66.70
2019-05-25T15:42:48.776Z,59.60
2019-05-25T15:45:16.883Z,54.20
2019-05-25T15:47:45.109Z,51.00
2019-05-25T15:50:15.343Z,49.20
2019-05-25T15:52:43.168Z,49.20
2019-05-25T15:55:11.248Z,49.70
2019-05-25T15:57:39.468Z,50.70
2019-05-25T16:00:08.487Z,51.90
2019-05-25T16:02:37.820Z,51.90
2019-05-25T16:05:05.857Z,50.80
2019-05-25T16:07:37.375Z,48.30
2019-05-25T16:10:07.091Z,48.20
2019-05-25T16:12:35.009Z,47.90
2019-05-25T16:15:07.050Z,49.20
2019-05-25T16:17:35.034Z,52.40
2019-05-25T16:20:03.428Z,55.70
2019-05-25T16:22:31.754Z,58.40
2019-05-25T16:25:00.500Z,61.70
2019-05-25T16:27:28.943Z,64.50
2019-05-25T16:29:56.403Z,70.40
2019-05-25T16:32:23.748Z,76.50
2019-05-25T16:34:51.129Z,80.50
2019-05-25T16:37:18.784Z,88.10
2019-05-25T16:39:46.353Z,90.20
2019-05-25T16:42:13.742Z,92.20
2019-05-25T16:44:40.893Z,92.60
2019-05-25T16:47:08.233Z,94.90
2019-05-25T16:49:35.893Z,95.30
2019-05-25T16:52:03.178Z,95.70
2019-05-25T16:54:30.255Z,97.60
2019-05-25T16:56:58.538Z,96.60
2019-05-25T16:59:25.733Z,96.40
2019-05-25T17:01:53.192Z,95.60
2019-05-25T17:04:20.248Z,95.90
2019-05-25T17:06:47.501Z,94.70
2019-05-25T17:09:15.190Z,95.10
2019-05-25T17:11:43.392Z,95.40
2019-05-25T17:14:11.436Z,95.70
2019-05-25T17:16:39.198Z,97.50
2019-05-25T17:19:06.909Z,97.30
2019-05-25T17:21:34.928Z,98.30
2019-05-25T17:24:03.066Z,97.70
2019-05-25T17:26:30.774Z,98.50
2019-05-25T17:28:58.619Z,99.50
2019-05-25T17:31:26.656Z,99.90
2019-05-25T17:33:54.956Z,99.90
2019-05-25T17:36:23.020Z,99.90
2019-05-25T17:38:51.534Z,99.90
2019-05-25T17:41:19.593Z,99.90
2019-05-25T17:43:47.988Z,99.90
2019-05-25T17:46:15.799Z,99.90
2019-05-25T17:48:43.536Z,99.90
2019-05-25T17:51:11.211Z,99.90
2019-05-25T17:53:38.875Z,99.90
2019-05-25T17:56:08.027Z,99.90
2019-05-25T17:58:35.968Z,99.90
2019-05-25T18:01:04.000Z,99.90
2019-05-25T18:03:31.846Z,99.90
2019-05-25T18:05:59.623Z,99.90
2019-05-25T18:08:27.419Z,99.90
2019-05-25T18:10:55.354Z,99.90
2019-05-25T18:13:23.546Z,99.90
2019-05-25T18:15:54.078Z,99.90
2019-05-25T18:18:22.430Z,99.90
2019-05-25T18:20:50.312Z,99.90
2019-05-25T18:23:18.286Z,99.90
2019-05-25T18:25:46.479Z,99.90
2019-05-25T18:28:14.198Z,99.90
2019-05-25T18:30:42.643Z,99.90
2019-05-25T18:33:10.965Z,99.90
2019-05-25T18:35:38.868Z,99.90
2019-05-25T18:38:06.976Z,99.90
2019-05-25T18:40:34.647Z,99.90
2019-05-25T18:43:02.805Z,99.90
2019-05-25T18:45:30.454Z,99.90
2019-05-25T18:47:58.231Z,99.90
2019-05-25T18:50:26.454Z,99.90
2019-05-25T18:52:54.458Z,99.90
2019-05-25T18:55:22.679Z,99.90
2019-05-25T18:57:50.508Z,99.90
2019-05-25T19:00:20.063Z,99.90
2019-05-25T19:02:47.643Z,99.90
2019-05-25T19:05:16.614Z,99.90
2019-05-25T19:07:44.470Z,99.90
2019-05-25T19:10:12.659Z,99.90
2019-05-25T19:12:40.757Z,99.90
2019-05-25T19:15:09.242Z,99.90
2019-05-25T19:17:36.978Z,99.90
2019-05-25T19:20:06.307Z,99.90
2019-05-25T19:22:34.487Z,99.90
2019-05-25T19:25:03.539Z,99.90
2019-05-25T19:27:31.545Z,99.90
2019-05-25T19:30:00.357Z,99.90
2019-05-25T19:32:27.962Z,99.90
2019-05-25T19:34:59.722Z,99.90
2019-05-25T19:37:25.839Z,99.90
2019-05-25T19:39:54.100Z,99.90
2019-05-25T19:42:22.179Z,99.90
2019-05-25T19:44:50.018Z,99.90
2019-05-25T19:47:17.867Z,99.90
2019-05-25T19:49:46.699Z,99.90
2019-05-25T19:52:15.554Z,99.90
2019-05-25T19:54:43.702Z,99.90
2019-05-25T19:57:11.635Z,99.90
2019-05-25T19:59:39.743Z,99.90
2019-05-25T20:02:09.409Z,99.90
2019-05-25T20:04:37.508Z,99.90
2019-05-25T20:07:05.196Z,99.90
2019-05-25T20:09:32.891Z,99.90
2019-05-25T20:12:00.814Z,99.90
2019-05-25T20:14:29.028Z,99.90
2019-05-25T20:16:57.609Z,99.90
2019-05-25T20:19:25.638Z,99.90
2019-05-25T20:21:53.439Z,99.90
2019-05-25T20:24:21.416Z,99.90
2019-05-25T20:26:49.241Z,99.90
2019-05-25T20:29:17.205Z,99.90
2019-05-25T20:31:45.037Z,99.90
2019-05-25T20:34:13.206Z,99.90
2019-05-25T20:36:41.153Z,99.90
2019-05-25T20:39:13.304Z,99.90
2019-05-25T20:41:41.349Z,99.90
2019-05-25T20:44:09.163Z,99.90
2019-05-25T20:46:37.168Z,99.90
2019-05-25T20:49:04.919Z,99.90
2019-05-25T20:51:33.520Z,99.90
2019-05-25T20:54:01.943Z,99.90
2019-05-25T20:56:30.635Z,99.90
2019-05-25T20:58:58.599Z,99.90
2019-05-25T21:01:27.847Z,99.90
2019-05-25T21:03:56.003Z,99.90
2019-05-25T21:06:24.598Z,99.90
2019-05-25T21:08:52.297Z,99.90
2019-05-25T21:11:20.525Z,99.90
2019-05-25T21:13:48.275Z,99.90
2019-05-25T21:16:16.118Z,99.90
2019-05-25T21:18:44.064Z,99.90
2019-05-25T21:21:12.216Z,99.90
2019-05-25T21:23:40.644Z,99.90
2019-05-25T21:26:08.464Z,99.90
2019-05-25T21:28:36.133Z,99.90
2019-05-25T21:31:04.390Z,99.90
2019-05-25T21:33:32.237Z,99.90
2019-05-25T21:36:08.118Z,99.90
2019-05-25T21:38:30.151Z,99.90
2019-05-25T21:40:58.187Z,99.90
2019-05-25T21:43:26.230Z,99.90
2019-05-25T21:45:54.215Z,99.90
2019-05-25T21:48:22.303Z,99.90
2019-05-25T21:50:49.875Z,99.90
2019-05-25T21:53:17.423Z,99.90
2019-05-25T21:55:45.458Z,99.90
2019-05-25T21:58:13.403Z,99.90
2019-05-25T22:00:41.586Z,99.90
2019-05-25T22:03:10.275Z,99.90
2019-05-25T22:05:38.045Z,99.90
2019-05-25T22:08:05.755Z,99.90
2019-05-25T22:10:34.844Z,99.90
2019-05-25T22:13:02.678Z,99.90
2019-05-25T22:15:31.159Z,99.90
2019-05-25T22:17:58.856Z,99.90
2019-05-25T22:20:26.613Z,99.90
2019-05-25T22:22:55.057Z,99.90
2019-05-25T22:25:22.831Z,99.90
2019-05-25T22:27:50.753Z,99.90
2019-05-25T22:30:18.908Z,99.90
2019-05-25T22:32:47.257Z,99.90
2019-05-25T22:35:16.081Z,99.90
2019-05-25T22:37:44.136Z,99.90
2019-05-25T22:40:12.369Z,99.90
2019-05-25T22:42:40.182Z,99.90
2019-05-25T22:45:08.367Z,99.90
2019-05-25T22:47:36.115Z,99.90
2019-05-25T22:50:04.474Z,99.90
2019-05-25T22:52:32.134Z,99.90
2019-05-25T22:54:59.911Z,99.90
2019-05-25T22:57:27.825Z,99.90
2019-05-25T22:59:55.898Z,99.90
2019-05-25T23:02:23.662Z,99.90
2019-05-25T23:04:51.655Z,99.90
2019-05-25T23:07:19.563Z,99.90
2019-05-25T23:09:47.337Z,99.90
2019-05-25T23:12:14.899Z,99.90
2019-05-25T23:14:42.570Z,99.90
2019-05-25T23:17:10.453Z,99.90
2019-05-25T23:19:38.268Z,99.90
2019-05-25T23:22:06.328Z,99.90
2019-05-25T23:24:34.027Z,99.90
2019-05-25T23:27:02.796Z,99.90
2019-05-25T23:29:30.674Z,99.90
2019-05-25T23:31:58.623Z,99.90
2019-05-25T23:34:26.412Z,99.90
2019-05-25T23:36:54.123Z,99.90
2019-05-25T23:39:21.900Z,99.90
2019-05-25T23:41:49.730Z,99.90
2019-05-25T23:44:17.412Z,99.90
2019-05-25T23:46:45.369Z,99.90
2019-05-25T23:49:13.132Z,99.90
2019-05-25T23:51:40.769Z,99.90
2019-05-25T23:54:08.444Z,99.90
2019-05-25T23:56:36.651Z,99.90
2019-05-25T23:59:04.294Z,99.90
